Newport, OR

1:17 PM PST on November 27, 2014 (GMT -0800)
K7BAW-Agate Beach | Change Station
CLOSE
Current Station
Personal Weather Station
Location: Newport, OR
Elevation: 75 ft
Nearby Weather Stations
Active Advisory: Special Statement Active Notice: Record Report

Elev 75 ft 44.66 °N, 124.05 °W | Updated 36 seconds ago

Overcast
Overcast
54.5 °F
Feels Like 54.5 °F
N
1.0
Wind Variable Wind from SE
Gusts 6.0 mph

Today
High -- | Low -- °F
--% Chance of Precip.
Yesterday
High -- | Low -- °F
Precip. -- in
7:28 AM 4:38 PM
Waxing Crescent, 33% visible
Pressure 29.97 in
Visibility 5.0 miles
Clouds Scattered Clouds 700 ft
Overcast 1500 ft
Dew Point 54 °F
Humidity 98%
Rainfall 0.33 in
Snow Depth Not available.
UV 1 out of 12
Pollen .10 out of 12
Air Quality Not available.
Flu Activity Not available.
METAR KONP 272055Z AUTO 18012G16KT 5SM -DZ SCT007 OVC015 12/11 A2997 RMK AO2

More Conditions Fewer Conditions

Pressure 29.97 in
Visibility 5.0 miles
Clouds Scattered Clouds 700 ft
Overcast 1500 ft
Dew Point 54 °F
Humidity 98%
Rainfall 0.33 in
Snow Depth Not available.
UV 1 out of 12
Pollen .10 out of 12
Air Quality Not available.
Flu Activity Not available.
METAR KONP 272055Z AUTO 18012G16KT 5SM -DZ SCT007 OVC015 12/11 A2997 RMK AO2

More Conditions Fewer Conditions

10-Day Weather Forecast

Almanac

Astronomy

Nov. 27, 2014 Rise Set
Actual Time
Civil Twilight
Nautical Twilight
Astronomical Twilight
Moon
Length of Visible Light
Length of Day
Tomorrow will be .
, % of the Moon is Illuminated

Today's Extremes

State Highs State Lows

Community

WunderPhotos

Upload Photos

1,774,106 photos uploaded!

WunderBlogs® & News

Nearby

Air Quality

  Air Quality AQ Index Pollutant
Not available.

Snow Depth

Station Depth Elevation

Earthquake Activity

City Distance Mag. Time & Date
Minimum magnitude displayed is 2.5.

Coastal Water Temperatures

Place Temperature

Nearby Weather Stations